Terminal Aerodrome Forecast
Issued by NWS

Home | Current Version | Previous Version | Text Only | Print | Product List | Glossary On
Versions: 1 2 3 4 5 6 7 8 9 10 11 12 13 14
000
FTUS42 TJSJ 221100
TAFJMZ
TAF
TJMZ 221125Z 2212/2312 09006KT P6SM FEW030
     FM221530 05010KT P6SM VCSH SCT025 BKN040
     FM221800 27010KT P6SM VCTS SCT025CB BKN040
      TEMPO 2218/2222 VRB10G20KT 3SM TSRA BKN025CB
     FM222300 09006KT P6SM SCT030=

USA.gov is the U.S. government's official web portal to all federal, state and local government web resources and services.